createdAt,value
2023-01-19T00:01:32.139Z,21.75
2023-01-19T00:04:24.080Z,19.00
2023-01-19T00:07:13.258Z,19.00
2023-01-19T00:10:04.922Z,18.30
2023-01-19T00:12:53.607Z,27.33
2023-01-19T00:15:42.512Z,18.13
2023-01-19T00:18:31.270Z,18.60
2023-01-19T00:21:19.897Z,17.43
2023-01-19T00:24:08.687Z,22.60
2023-01-19T00:26:58.807Z,21.77
2023-01-19T00:29:47.377Z,23.63
2023-01-19T00:32:36.049Z,22.55
2023-01-19T00:35:24.912Z,21.13
2023-01-19T00:38:14.425Z,27.93
2023-01-19T00:41:03.158Z,20.07
2023-01-19T00:43:53.549Z,21.47
2023-01-19T00:46:42.232Z,22.70
2023-01-19T00:49:31.049Z,25.93
2023-01-19T00:52:21.159Z,21.60
2023-01-19T00:55:11.405Z,29.87
2023-01-19T00:57:59.804Z,30.37
2023-01-19T01:00:50.003Z,35.30
2023-01-19T01:03:38.467Z,24.83
2023-01-19T01:06:27.151Z,26.60
2023-01-19T01:09:15.747Z,38.63
2023-01-19T01:12:04.197Z,18.00
2023-01-19T01:14:54.761Z,23.70
2023-01-19T01:17:47.957Z,25.83
2023-01-19T01:20:37.618Z,19.87
2023-01-19T01:23:26.174Z,26.63
2023-01-19T01:26:14.786Z,22.50
2023-01-19T01:29:03.619Z,23.70
2023-01-19T01:31:52.972Z,24.60
2023-01-19T01:34:43.011Z,26.33
2023-01-19T01:37:32.201Z,23.93
2023-01-19T01:40:21.595Z,22.73
2023-01-19T01:43:12.950Z,25.40
2023-01-19T01:46:01.820Z,19.93
2023-01-19T01:48:57.357Z,27.70
2023-01-19T01:51:50.046Z,20.87
2023-01-19T01:54:38.549Z,23.80
2023-01-19T01:57:28.559Z,23.87
2023-01-19T02:00:17.994Z,28.60
2023-01-19T02:03:05.910Z,27.63
2023-01-19T02:05:57.755Z,41.83
2023-01-19T02:09:09.433Z,31.70
2023-01-19T02:12:16.103Z,33.60
2023-01-19T02:15:05.851Z,22.73
2023-01-19T02:17:54.505Z,24.47
2023-01-19T02:20:49.024Z,25.60
2023-01-19T02:23:45.536Z,22.30
2023-01-19T02:26:38.377Z,29.97
2023-01-19T02:29:28.216Z,34.60
2023-01-19T02:32:16.837Z,35.80
2023-01-19T02:35:05.856Z,30.90
2023-01-19T02:37:55.538Z,31.87
2023-01-19T02:40:47.204Z,27.97
2023-01-19T02:43:40.780Z,28.90
2023-01-19T02:46:29.422Z,23.40
2023-01-19T02:49:21.072Z,24.50
2023-01-19T02:52:17.096Z,24.70
2023-01-19T02:55:15.460Z,32.57
2023-01-19T02:58:13.199Z,29.53
2023-01-19T03:01:14.834Z,25.07
2023-01-19T03:04:13.629Z,33.20
2023-01-19T03:07:10.611Z,31.70
2023-01-19T03:10:07.145Z,36.20
2023-01-19T03:13:02.062Z,32.33
2023-01-19T03:15:58.083Z,28.43
2023-01-19T03:18:51.111Z,39.92
2023-01-19T03:21:44.370Z,39.23
2023-01-19T03:24:38.735Z,38.20
2023-01-19T03:27:31.352Z,29.70
2023-01-19T03:30:26.675Z,38.83
2023-01-19T03:33:23.598Z,30.07
2023-01-19T03:36:17.930Z,38.00
2023-01-19T03:42:07.344Z,34.00
2023-01-19T03:51:17.634Z,36.23
2023-01-19T03:54:06.771Z,37.10
2023-01-19T03:56:59.295Z,32.97
2023-01-19T03:59:48.166Z,38.47
2023-01-19T04:02:36.541Z,41.03
2023-01-19T04:05:27.150Z,30.97
2023-01-19T04:08:22.756Z,30.50
2023-01-19T04:11:12.360Z,35.27
2023-01-19T04:14:01.825Z,33.27
2023-01-19T04:16:51.696Z,34.47
2023-01-19T04:19:41.298Z,39.70
2023-01-19T04:22:31.965Z,40.17
2023-01-19T04:25:23.319Z,37.40
2023-01-19T04:28:13.335Z,36.73
2023-01-19T04:31:09.573Z,37.30
2023-01-19T04:33:58.056Z,39.70
2023-01-19T04:36:47.065Z,36.20
2023-01-19T04:39:38.216Z,32.57
2023-01-19T04:42:39.145Z,39.10
2023-01-19T04:45:27.823Z,34.23
2023-01-19T04:48:22.012Z,30.50
2023-01-19T04:51:13.384Z,33.10
2023-01-19T04:54:01.720Z,38.83
2023-01-19T04:56:50.229Z,33.67
2023-01-19T04:59:41.101Z,33.53
2023-01-19T05:02:32.668Z,34.17
2023-01-19T05:05:22.932Z,33.73
2023-01-19T05:08:11.377Z,35.53
2023-01-19T05:11:00.162Z,33.40
2023-01-19T05:13:50.999Z,30.93
2023-01-19T05:16:41.349Z,33.87
2023-01-19T05:19:32.464Z,36.83
2023-01-19T05:22:20.708Z,37.63
2023-01-19T05:25:10.073Z,35.43
2023-01-19T05:27:58.890Z,34.90
2023-01-19T05:30:48.018Z,36.67
2023-01-19T05:33:44.178Z,31.70
2023-01-19T05:36:32.985Z,34.33
2023-01-19T05:39:22.359Z,31.97
2023-01-19T05:42:10.619Z,25.57
2023-01-19T05:45:02.416Z,38.17
2023-01-19T05:47:51.114Z,31.47
2023-01-19T05:50:43.617Z,36.90
2023-01-19T05:53:32.075Z,32.40
2023-01-19T05:56:23.112Z,30.63
2023-01-19T05:59:12.613Z,33.50
2023-01-19T06:02:01.286Z,29.20
2023-01-19T06:04:50.499Z,30.93
2023-01-19T06:07:40.879Z,38.77
2023-01-19T06:10:29.537Z,38.03
2023-01-19T06:13:21.532Z,34.70
2023-01-19T06:16:13.038Z,37.80
2023-01-19T06:19:01.418Z,33.83
2023-01-19T06:21:52.669Z,31.27
2023-01-19T06:24:42.675Z,19.50
2023-01-19T06:27:32.054Z,33.50
2023-01-19T06:30:21.577Z,31.93
2023-01-19T06:33:12.079Z,40.23
2023-01-19T06:36:00.762Z,39.90
2023-01-19T06:38:49.060Z,35.33
2023-01-19T06:41:39.692Z,40.53
2023-01-19T06:44:30.771Z,33.23
2023-01-19T06:47:21.631Z,35.60
2023-01-19T06:50:14.019Z,34.60
2023-01-19T06:53:02.885Z,36.87
2023-01-19T06:55:53.127Z,42.03
2023-01-19T06:58:43.505Z,31.50
2023-01-19T07:01:33.071Z,37.70
2023-01-19T07:04:21.308Z,29.07
2023-01-19T07:07:09.564Z,32.70
2023-01-19T07:09:58.264Z,35.50
2023-01-19T07:12:47.859Z,35.13
2023-01-19T07:15:39.903Z,40.93
2023-01-19T07:18:28.208Z,35.37
2023-01-19T07:21:16.799Z,38.23
2023-01-19T07:24:05.442Z,27.33
2023-01-19T07:26:53.765Z,32.40
2023-01-19T07:29:42.994Z,33.63
2023-01-19T07:32:32.797Z,38.03
2023-01-19T07:35:22.288Z,32.87
2023-01-19T07:38:10.726Z,40.90
2023-01-19T07:41:02.545Z,35.03
2023-01-19T07:43:52.872Z,37.70
2023-01-19T07:46:41.359Z,34.17
2023-01-19T07:49:33.296Z,31.00
2023-01-19T07:52:23.111Z,30.50
2023-01-19T07:55:11.559Z,28.80
2023-01-19T07:57:59.922Z,28.23
2023-01-19T08:00:48.209Z,29.17
2023-01-19T08:03:38.771Z,25.93
2023-01-19T08:06:34.230Z,28.87
2023-01-19T08:09:23.160Z,31.77
2023-01-19T08:12:11.664Z,26.00
2023-01-19T08:15:00.661Z,22.43
2023-01-19T08:17:56.520Z,25.73
2023-01-19T08:20:44.929Z,31.23
2023-01-19T08:23:36.942Z,25.87
2023-01-19T08:26:29.854Z,27.27
2023-01-19T08:29:18.222Z,25.80
2023-01-19T08:32:09.528Z,26.27
2023-01-19T08:34:57.993Z,21.30
2023-01-19T08:37:46.475Z,22.53
2023-01-19T08:40:41.484Z,22.30
2023-01-19T08:43:30.238Z,21.60
2023-01-19T08:46:21.465Z,16.23
2023-01-19T08:49:10.130Z,15.03
2023-01-19T08:51:58.500Z,20.50
2023-01-19T08:54:47.202Z,14.23
2023-01-19T08:57:36.900Z,9.70
2023-01-19T09:00:27.205Z,13.23
2023-01-19T09:03:15.721Z,12.57
2023-01-19T09:06:06.999Z,15.83
2023-01-19T09:08:55.363Z,13.50
2023-01-19T09:11:43.802Z,12.43
2023-01-19T09:14:35.815Z,19.10
2023-01-19T09:17:24.458Z,14.57
2023-01-19T09:20:14.074Z,11.07
2023-01-19T09:23:02.651Z,12.00
2023-01-19T09:25:51.079Z,14.70
2023-01-19T09:28:40.034Z,13.13
2023-01-19T09:31:30.263Z,12.00
2023-01-19T09:34:19.090Z,12.47
2023-01-19T09:37:09.160Z,10.60
2023-01-19T09:39:58.592Z,16.40
2023-01-19T09:42:56.152Z,12.50
2023-01-19T09:45:50.250Z,8.53
2023-01-19T09:48:52.852Z,16.43
2023-01-19T09:51:45.421Z,13.80
2023-01-19T09:54:44.261Z,9.50
2023-01-19T09:57:33.612Z,10.43
2023-01-19T10:00:24.689Z,10.50
2023-01-19T10:03:17.352Z,13.97
2023-01-19T10:06:10.807Z,8.70
2023-01-19T10:09:09.446Z,11.70
2023-01-19T10:12:03.496Z,11.53
2023-01-19T10:14:57.887Z,10.50
2023-01-19T10:17:54.809Z,10.00
2023-01-19T10:20:48.430Z,10.73
2023-01-19T10:23:42.701Z,11.83
2023-01-19T10:26:36.525Z,11.93
2023-01-19T10:29:29.694Z,9.80
2023-01-19T10:32:21.457Z,8.30
2023-01-19T10:35:21.855Z,10.87
2023-01-19T10:38:15.597Z,11.00
2023-01-19T10:41:19.709Z,12.23
2023-01-19T10:44:09.571Z,8.73
2023-01-19T10:47:01.019Z,9.50
2023-01-19T10:49:49.984Z,16.17
2023-01-19T10:52:44.895Z,12.60
2023-01-19T10:55:39.052Z,15.43
2023-01-19T10:58:32.544Z,14.10
2023-01-19T11:01:23.299Z,25.93
2023-01-19T11:04:24.371Z,9.23
2023-01-19T11:07:20.204Z,12.50
2023-01-19T11:10:21.419Z,9.63
2023-01-19T11:13:16.090Z,10.90
2023-01-19T11:16:12.293Z,12.20
2023-01-19T11:19:03.345Z,11.00
2023-01-19T11:21:54.558Z,9.53
2023-01-19T11:24:45.717Z,12.80
2023-01-19T11:27:40.959Z,14.70
2023-01-19T11:30:36.832Z,12.77
2023-01-19T11:33:35.981Z,9.40
2023-01-19T11:36:27.003Z,16.40
2023-01-19T11:39:23.746Z,14.37
2023-01-19T11:42:14.483Z,11.87
2023-01-19T11:45:08.778Z,13.83
2023-01-19T11:48:00.404Z,10.13
2023-01-19T11:50:51.153Z,11.40
2023-01-19T11:53:44.534Z,12.90
2023-01-19T11:56:35.095Z,10.13
2023-01-19T11:59:25.165Z,12.73
2023-01-19T12:02:27.428Z,10.73
2023-01-19T12:05:20.476Z,9.03
2023-01-19T12:08:15.972Z,10.37
2023-01-19T12:11:07.476Z,14.43
2023-01-19T12:13:56.093Z,19.00
2023-01-19T12:16:45.543Z,11.03
2023-01-19T12:19:44.134Z,13.17
2023-01-19T12:22:42.678Z,13.23
2023-01-19T12:25:42.528Z,13.17
2023-01-19T12:28:33.807Z,14.23
2023-01-19T12:31:23.887Z,11.47
2023-01-19T12:34:40.247Z,15.37
2023-01-19T12:37:43.049Z,11.87
2023-01-19T12:40:35.333Z,14.30
2023-01-19T12:43:24.735Z,13.17
2023-01-19T12:46:30.909Z,12.53
2023-01-19T12:49:27.515Z,18.90
2023-01-19T12:52:24.843Z,11.97
2023-01-19T12:55:23.715Z,18.20
2023-01-19T12:58:19.151Z,10.17
2023-01-19T13:01:16.775Z,11.30
2023-01-19T13:04:09.365Z,12.57
2023-01-19T13:07:10.648Z,19.23
2023-01-19T13:09:59.417Z,18.97
2023-01-19T13:13:18.999Z,17.83
2023-01-19T13:16:40.478Z,16.07
2023-01-19T13:19:48.854Z,11.10
2023-01-19T13:23:13.824Z,15.00
2023-01-19T13:26:07.649Z,16.43
2023-01-19T13:29:04.512Z,11.10
2023-01-19T13:32:03.546Z,18.83
2023-01-19T13:34:57.668Z,18.67
2023-01-19T13:37:47.587Z,17.67
2023-01-19T13:40:49.226Z,16.30
2023-01-19T13:43:40.048Z,15.07
2023-01-19T13:46:31.716Z,14.53
2023-01-19T13:49:26.033Z,15.23
2023-01-19T13:52:17.131Z,13.70
2023-01-19T13:55:08.944Z,14.80
2023-01-19T13:57:58.262Z,14.83
2023-01-19T14:00:49.899Z,16.33
2023-01-19T14:03:42.989Z,15.20
2023-01-19T14:06:40.770Z,15.87
2023-01-19T14:09:29.881Z,19.30
2023-01-19T14:12:18.908Z,16.60
2023-01-19T14:15:14.376Z,15.83
2023-01-19T14:18:24.026Z,18.20
2023-01-19T14:21:15.308Z,19.63
2023-01-19T14:24:09.416Z,14.57
2023-01-19T14:27:12.385Z,16.10
2023-01-19T14:30:22.904Z,14.77
2023-01-19T14:33:34.877Z,20.93
2023-01-19T14:36:36.312Z,17.27
2023-01-19T14:39:27.444Z,18.03
2023-01-19T14:42:19.990Z,29.10
2023-01-19T14:45:20.414Z,16.10
2023-01-19T14:48:18.638Z,19.80
2023-01-19T14:51:07.286Z,21.20
2023-01-19T14:54:00.868Z,23.90
2023-01-19T14:56:50.622Z,18.73
2023-01-19T14:59:38.855Z,23.10
2023-01-19T15:02:29.141Z,26.07
2023-01-19T15:05:17.949Z,23.97
2023-01-19T15:08:16.027Z,19.40
2023-01-19T15:11:13.959Z,19.83
2023-01-19T15:14:04.575Z,18.93
2023-01-19T15:16:53.566Z,25.47
2023-01-19T15:19:41.913Z,25.77
2023-01-19T15:22:30.181Z,28.43
2023-01-19T15:25:21.112Z,30.20
2023-01-19T15:28:14.045Z,23.83
2023-01-19T15:31:02.483Z,52.90
2023-01-19T15:33:51.641Z,25.77
2023-01-19T15:36:40.650Z,22.03
2023-01-19T15:39:29.553Z,19.23
2023-01-19T15:42:18.191Z,29.97
2023-01-19T15:45:31.968Z,22.20
2023-01-19T15:48:22.471Z,24.13
2023-01-19T15:51:14.295Z,24.40
2023-01-19T15:54:02.593Z,20.73
2023-01-19T15:56:52.977Z,20.53
2023-01-19T15:59:42.569Z,19.50
2023-01-19T16:02:34.933Z,26.13
2023-01-19T16:05:30.619Z,22.30
2023-01-19T16:08:25.886Z,20.30
2023-01-19T16:11:18.545Z,18.13
2023-01-19T16:14:09.862Z,24.97
2023-01-19T16:17:00.028Z,21.13
2023-01-19T16:19:50.286Z,21.27
2023-01-19T16:22:38.804Z,25.47
2023-01-19T16:25:28.733Z,18.50
2023-01-19T16:28:17.100Z,22.57
2023-01-19T16:31:06.341Z,23.40
2023-01-19T16:33:55.884Z,27.17
2023-01-19T16:36:45.941Z,22.73
2023-01-19T16:39:34.586Z,24.07
2023-01-19T16:42:24.080Z,22.17
2023-01-19T16:45:12.707Z,23.60
2023-01-19T16:48:00.928Z,25.67
2023-01-19T16:51:00.145Z,26.83
2023-01-19T16:53:53.120Z,20.77
2023-01-19T16:56:43.839Z,19.47
2023-01-19T16:59:32.333Z,23.87
2023-01-19T17:02:23.205Z,27.87
2023-01-19T17:05:11.997Z,25.63
2023-01-19T17:08:00.433Z,22.97
2023-01-19T17:10:50.074Z,29.50
2023-01-19T17:13:39.272Z,22.87
2023-01-19T17:16:29.309Z,19.93
2023-01-19T17:19:19.282Z,23.60
2023-01-19T17:22:08.216Z,23.33
2023-01-19T17:24:56.951Z,23.33
2023-01-19T17:27:47.157Z,24.33
2023-01-19T17:30:35.578Z,18.80
2023-01-19T17:33:25.712Z,24.07
2023-01-19T17:36:16.517Z,22.57
2023-01-19T17:39:08.610Z,24.10
2023-01-19T17:41:59.467Z,18.97
2023-01-19T17:44:51.697Z,23.37
2023-01-19T17:47:40.204Z,22.20
2023-01-19T17:50:28.982Z,20.80
2023-01-19T17:53:20.699Z,19.47
2023-01-19T17:56:11.409Z,24.67
2023-01-19T17:59:00.881Z,19.77
2023-01-19T18:01:54.859Z,26.77
2023-01-19T18:04:43.554Z,29.17
2023-01-19T18:07:40.782Z,23.67
2023-01-19T18:10:29.393Z,23.43
2023-01-19T18:13:21.252Z,22.13
2023-01-19T18:16:14.952Z,20.73
2023-01-19T18:19:05.171Z,18.07
2023-01-19T18:21:53.589Z,18.87
2023-01-19T18:24:46.764Z,23.70
2023-01-19T18:27:36.392Z,19.53
2023-01-19T18:30:31.291Z,19.87
2023-01-19T18:33:21.046Z,15.40
2023-01-19T18:36:14.620Z,39.23
2023-01-19T18:39:04.135Z,23.10
2023-01-19T18:41:52.776Z,23.13
2023-01-19T18:44:42.481Z,20.03
2023-01-19T18:47:33.059Z,21.97
2023-01-19T18:50:21.330Z,29.07
2023-01-19T18:53:11.097Z,28.50
2023-01-19T18:56:02.033Z,22.55
2023-01-19T18:58:50.414Z,21.53
2023-01-19T19:01:40.040Z,23.00
2023-01-19T19:04:28.531Z,21.20
2023-01-19T19:07:16.776Z,21.67
2023-01-19T19:10:08.074Z,19.30
2023-01-19T19:12:56.576Z,24.77
2023-01-19T19:15:45.335Z,26.17
2023-01-19T19:18:35.525Z,20.20
2023-01-19T19:21:25.659Z,21.93
2023-01-19T19:24:14.377Z,23.23
2023-01-19T19:27:04.103Z,22.10
2023-01-19T19:29:53.673Z,22.40
2023-01-19T19:32:43.118Z,20.10
2023-01-19T19:35:32.717Z,20.13
2023-01-19T19:38:21.102Z,17.97
2023-01-19T19:41:12.447Z,26.63
2023-01-19T19:44:02.220Z,21.23
2023-01-19T19:46:50.780Z,24.07
2023-01-19T19:49:39.220Z,21.73
2023-01-19T19:55:31.530Z,21.57
2023-01-19T19:58:20.010Z,19.13
2023-01-19T20:01:11.787Z,29.27
2023-01-19T20:04:05.119Z,20.37
2023-01-19T20:06:53.740Z,20.70
2023-01-19T20:09:42.518Z,31.20
2023-01-19T20:12:30.796Z,15.97
2023-01-19T20:15:19.039Z,19.10
2023-01-19T20:18:11.851Z,23.93
2023-01-19T20:21:01.031Z,22.30
2023-01-19T20:23:53.333Z,23.33
2023-01-19T20:26:44.840Z,20.30
2023-01-19T20:29:33.121Z,19.27
2023-01-19T20:32:21.807Z,21.40
2023-01-19T20:35:15.565Z,21.40
2023-01-19T20:38:19.055Z,20.90
2023-01-19T20:41:08.940Z,20.20
2023-01-19T20:43:58.114Z,17.53
2023-01-19T20:46:49.204Z,22.10
2023-01-19T20:49:37.884Z,18.13
2023-01-19T20:52:27.878Z,20.65
2023-01-19T20:55:16.175Z,19.87
2023-01-19T20:58:04.684Z,18.90
2023-01-19T21:00:53.410Z,21.97
2023-01-19T21:03:42.716Z,19.83
2023-01-19T21:06:31.372Z,19.90
2023-01-19T21:09:22.883Z,22.23
2023-01-19T21:12:11.366Z,21.07
2023-01-19T21:15:00.155Z,19.30
2023-01-19T21:17:51.809Z,24.03
2023-01-19T21:20:40.167Z,22.00
2023-01-19T21:23:29.002Z,14.83
2023-01-19T21:26:21.072Z,19.20
2023-01-19T21:29:13.384Z,18.77
2023-01-19T21:32:02.001Z,17.17
2023-01-19T21:34:50.179Z,20.00
2023-01-19T21:37:38.651Z,21.37
2023-01-19T21:40:28.708Z,18.70
2023-01-19T21:43:20.146Z,23.43
2023-01-19T21:46:16.079Z,20.60
2023-01-19T21:49:06.811Z,19.37
2023-01-19T21:51:55.430Z,20.17
2023-01-19T21:54:44.114Z,17.87
2023-01-19T21:57:32.476Z,18.00
2023-01-19T22:00:22.898Z,16.97
2023-01-19T22:03:11.573Z,23.90
2023-01-19T22:06:05.582Z,18.70
2023-01-19T22:08:55.128Z,20.40
2023-01-19T22:11:43.399Z,22.10
2023-01-19T22:14:31.770Z,20.07
2023-01-19T22:17:21.767Z,16.47
2023-01-19T22:20:11.886Z,19.50
2023-01-19T22:23:01.891Z,17.70
2023-01-19T22:25:50.127Z,19.53
2023-01-19T22:28:40.930Z,22.20
2023-01-19T22:31:30.696Z,17.80
2023-01-19T22:34:20.493Z,23.77
2023-01-19T22:37:08.726Z,28.50
2023-01-19T22:39:57.098Z,23.97
2023-01-19T22:42:48.014Z,22.73
2023-01-19T22:45:36.374Z,20.10
2023-01-19T22:48:24.957Z,27.10
2023-01-19T22:51:15.219Z,26.10
2023-01-19T22:54:03.934Z,23.47
2023-01-19T22:56:54.209Z,24.93
2023-01-19T22:59:44.795Z,27.23
2023-01-19T23:02:33.134Z,25.03
2023-01-19T23:05:22.393Z,26.40
2023-01-19T23:08:12.047Z,27.50
2023-01-19T23:11:06.262Z,28.80
2023-01-19T23:13:55.293Z,32.83
2023-01-19T23:16:44.804Z,27.27
2023-01-19T23:19:33.108Z,24.10
2023-01-19T23:22:21.327Z,26.57
2023-01-19T23:25:11.618Z,33.07
2023-01-19T23:28:01.272Z,25.60
2023-01-19T23:30:49.671Z,28.07
2023-01-19T23:33:38.119Z,23.60
2023-01-19T23:36:34.440Z,23.90
2023-01-19T23:39:41.026Z,30.43
2023-01-19T23:42:30.995Z,22.37
2023-01-19T23:45:19.242Z,28.60
2023-01-19T23:48:08.163Z,28.67
2023-01-19T23:50:56.403Z,25.93
2023-01-19T23:53:46.406Z,32.47
2023-01-19T23:56:37.295Z,30.13
2023-01-19T23:59:27.404Z,24.90
